createdAt,value
2023-01-07T00:02:06.027Z,4.20
2023-01-07T00:05:08.456Z,4.27
2023-01-07T00:08:11.395Z,4.15
2023-01-07T00:11:15.641Z,4.35
2023-01-07T00:14:18.398Z,4.00
2023-01-07T00:17:21.815Z,3.73
2023-01-07T00:20:23.149Z,4.77
2023-01-07T00:23:26.226Z,4.28
2023-01-07T00:26:30.544Z,3.88
2023-01-07T00:29:33.217Z,4.70
2023-01-07T00:36:15.718Z,4.43
2023-01-07T00:39:21.238Z,4.10
2023-01-07T00:42:40.765Z,4.55
2023-01-07T00:49:05.545Z,4.63
2023-01-07T00:52:08.387Z,4.17
2023-01-07T00:55:11.725Z,4.07
2023-01-07T00:58:16.581Z,3.85
2023-01-07T01:01:18.003Z,4.30
2023-01-07T01:07:41.519Z,4.30
2023-01-07T01:14:05.506Z,3.58
2023-01-07T01:17:08.099Z,3.47
2023-01-07T01:20:13.769Z,3.70
2023-01-07T01:23:16.394Z,3.93
2023-01-07T01:26:17.771Z,3.70
2023-01-07T01:29:20.957Z,3.95
2023-01-07T01:32:22.383Z,3.60
2023-01-07T01:35:26.401Z,3.60
2023-01-07T01:38:30.735Z,4.07
2023-01-07T01:41:33.851Z,3.97
2023-01-07T01:44:41.132Z,3.30
2023-01-07T01:47:45.351Z,3.60
2023-01-07T01:50:50.880Z,3.73
2023-01-07T01:53:53.675Z,3.57
2023-01-07T01:57:00.936Z,3.42
2023-01-07T02:00:03.783Z,3.72
2023-01-07T02:03:10.578Z,3.55
2023-01-07T02:06:21.421Z,3.30
2023-01-07T02:09:24.084Z,3.43
2023-01-07T02:12:41.453Z,3.80
2023-01-07T02:15:52.578Z,3.30
2023-01-07T02:19:06.416Z,3.15
2023-01-07T02:22:18.236Z,3.53
2023-01-07T02:25:53.344Z,3.50
2023-01-07T02:29:25.264Z,3.05
2023-01-07T02:32:38.936Z,2.88
2023-01-07T02:35:55.945Z,3.15
2023-01-07T02:39:13.936Z,3.40
2023-01-07T02:42:25.532Z,3.10
2023-01-07T02:45:31.675Z,3.00
2023-01-07T02:48:36.601Z,3.00
2023-01-07T02:51:40.090Z,3.22
2023-01-07T02:54:42.831Z,2.70
2023-01-07T02:58:16.696Z,2.80
2023-01-07T03:01:33.642Z,3.67
2023-01-07T03:05:07.849Z,3.08
2023-01-07T03:08:24.461Z,2.80
2023-01-07T03:11:30.565Z,3.70
2023-01-07T03:14:40.843Z,3.03
2023-01-07T03:17:51.165Z,2.97
2023-01-07T03:20:58.999Z,3.00
2023-01-07T03:24:01.748Z,3.03
2023-01-07T03:27:07.066Z,3.80
2023-01-07T03:30:13.675Z,3.10
2023-01-07T03:33:20.642Z,2.78
2023-01-07T03:36:28.298Z,3.15
2023-01-07T03:39:32.570Z,3.05
2023-01-07T03:42:40.981Z,3.17
2023-01-07T03:45:42.686Z,2.80
2023-01-07T03:48:44.545Z,3.05
2023-01-07T03:51:48.590Z,3.05
2023-01-07T03:54:51.422Z,2.75
2023-01-07T03:57:52.784Z,3.30
2023-01-07T04:00:55.673Z,2.73
2023-01-07T04:03:57.148Z,2.67
2023-01-07T04:07:00.332Z,2.80
2023-01-07T04:10:02.892Z,3.03
2023-01-07T04:13:04.222Z,2.90
2023-01-07T04:16:07.154Z,2.77
2023-01-07T04:19:08.826Z,3.15
2023-01-07T04:22:12.752Z,3.47
2023-01-07T04:25:15.501Z,3.10
2023-01-07T04:28:16.776Z,3.17
2023-01-07T04:34:39.164Z,3.05
2023-01-07T04:37:44.780Z,3.35
2023-01-07T04:40:47.279Z,3.67
2023-01-07T04:43:49.995Z,3.37
2023-01-07T04:46:51.623Z,3.33
2023-01-07T04:49:54.169Z,3.53
2023-01-07T04:52:56.437Z,3.22
2023-01-07T04:55:59.049Z,3.22
2023-01-07T04:59:01.969Z,3.80
2023-01-07T05:02:05.081Z,3.43
2023-01-07T05:05:08.378Z,3.65
2023-01-07T05:08:10.664Z,3.80
2023-01-07T05:11:13.184Z,3.70
2023-01-07T05:14:15.733Z,3.93
2023-01-07T05:17:17.371Z,3.73
2023-01-07T05:20:19.944Z,4.03
2023-01-07T05:23:22.252Z,4.40
2023-01-07T05:26:24.841Z,4.30
2023-01-07T05:29:26.264Z,3.90
2023-01-07T05:32:28.811Z,4.43
2023-01-07T05:35:30.131Z,4.80
2023-01-07T05:41:54.460Z,4.70
2023-01-07T05:44:56.962Z,4.97
2023-01-07T05:47:58.334Z,4.60
2023-01-07T05:51:00.917Z,4.78
2023-01-07T05:54:03.022Z,5.63
2023-01-07T05:57:05.641Z,5.05
2023-01-07T06:00:09.627Z,5.17
2023-01-07T06:03:12.258Z,5.78
2023-01-07T06:06:13.709Z,6.05
2023-01-07T06:09:16.963Z,6.00
2023-01-07T06:12:18.385Z,5.55
2023-01-07T06:15:20.931Z,5.35
2023-01-07T06:18:22.231Z,4.95
2023-01-07T06:21:24.757Z,6.13
2023-01-07T06:24:26.724Z,5.73
2023-01-07T06:34:10.345Z,5.63
2023-01-07T06:37:12.510Z,5.00
2023-01-07T06:40:14.497Z,6.00
2023-01-07T06:43:17.423Z,5.45
2023-01-07T06:46:20.145Z,5.28
2023-01-07T06:49:21.548Z,5.27
2023-01-07T06:52:24.135Z,5.97
2023-01-07T06:55:26.404Z,5.93
2023-01-07T06:58:28.942Z,5.80
2023-01-07T07:01:31.799Z,6.40
2023-01-07T07:04:33.198Z,6.67
2023-01-07T07:07:35.780Z,5.10
2023-01-07T07:10:37.786Z,5.18
2023-01-07T07:13:40.368Z,5.70
2023-01-07T07:16:43.014Z,5.60
2023-01-07T07:19:44.346Z,6.50
2023-01-07T07:22:48.560Z,6.57
2023-01-07T07:25:50.495Z,5.45
2023-01-07T07:28:53.071Z,5.10
2023-01-07T07:31:54.433Z,5.60
2023-01-07T07:34:57.237Z,5.50
2023-01-07T07:37:58.531Z,6.60
2023-01-07T07:41:02.618Z,5.82
2023-01-07T07:44:04.291Z,5.82
2023-01-07T07:47:06.827Z,6.20
2023-01-07T07:50:08.322Z,5.67
2023-01-07T07:53:11.915Z,5.53
2023-01-07T07:56:14.025Z,5.68
2023-01-07T07:59:16.597Z,5.18
2023-01-07T08:02:18.612Z,5.07
2023-01-07T08:05:21.505Z,5.00
2023-01-07T08:08:24.122Z,5.15
2023-01-07T08:11:26.421Z,4.90
2023-01-07T08:14:29.033Z,4.32
2023-01-07T08:17:30.353Z,5.23
2023-01-07T08:20:33.419Z,5.03
2023-01-07T08:23:36.008Z,4.82
2023-01-07T08:26:38.299Z,5.13
2023-01-07T08:29:40.962Z,4.60
2023-01-07T08:32:42.449Z,5.40
2023-01-07T08:35:45.316Z,5.20
2023-01-07T08:38:51.643Z,4.60
2023-01-07T08:41:53.846Z,3.97
2023-01-07T08:44:56.535Z,4.28
2023-01-07T08:47:58.920Z,4.53
2023-01-07T08:51:01.527Z,3.67
2023-01-07T08:54:04.684Z,3.80
2023-01-07T08:57:06.979Z,4.15
2023-01-07T09:00:11.540Z,4.30
2023-01-07T09:03:13.360Z,3.87
2023-01-07T09:12:57.591Z,4.50
2023-01-07T09:15:59.392Z,4.00
2023-01-07T09:22:21.976Z,4.40
2023-01-07T09:25:23.427Z,4.60
2023-01-07T09:28:25.660Z,4.00
2023-01-07T09:31:29.089Z,4.32
2023-01-07T09:34:32.664Z,3.80
2023-01-07T09:37:34.055Z,3.73
2023-01-07T09:40:39.799Z,3.97
2023-01-07T09:44:00.919Z,3.47
2023-01-07T09:47:07.265Z,3.63
2023-01-07T09:50:23.252Z,4.40
2023-01-07T09:53:30.409Z,3.60
2023-01-07T09:56:34.832Z,3.95
2023-01-07T09:59:36.861Z,3.17
2023-01-07T10:02:50.671Z,3.95
2023-01-07T10:06:04.529Z,3.73
2023-01-07T10:12:43.060Z,3.88
2023-01-07T10:15:59.839Z,3.97
2023-01-07T10:22:36.709Z,3.73
2023-01-07T10:25:44.949Z,4.00
2023-01-07T10:28:51.554Z,3.78
2023-01-07T10:31:56.793Z,3.42
2023-01-07T10:35:01.150Z,3.20
2023-01-07T10:38:04.225Z,3.10
2023-01-07T10:41:13.801Z,3.07
2023-01-07T10:44:50.517Z,3.38
2023-01-07T10:48:18.007Z,3.28
2023-01-07T10:51:49.220Z,3.28
2023-01-07T10:55:16.283Z,3.80
2023-01-07T10:58:17.610Z,3.20
2023-01-07T11:01:25.949Z,3.55
2023-01-07T11:04:27.981Z,3.53
2023-01-07T11:10:59.677Z,3.00
2023-01-07T11:14:04.229Z,2.90
2023-01-07T11:17:11.301Z,3.30
2023-01-07T11:20:13.537Z,2.50
2023-01-07T11:26:50.388Z,2.90
2023-01-07T11:29:57.016Z,2.80
2023-01-07T11:33:03.738Z,2.45
2023-01-07T11:36:09.321Z,3.00
2023-01-07T11:39:19.430Z,2.90
2023-01-07T11:42:40.379Z,2.87
2023-01-07T11:46:19.982Z,2.83
2023-01-07T11:49:22.282Z,3.35
2023-01-07T11:52:24.571Z,2.60
2023-01-07T11:55:28.116Z,2.92
2023-01-07T11:58:32.345Z,2.87
2023-01-07T12:01:42.251Z,2.60
2023-01-07T12:04:44.876Z,2.80
2023-01-07T12:07:48.590Z,2.03
2023-01-07T12:10:56.788Z,2.72
2023-01-07T12:14:07.228Z,2.70
2023-01-07T12:17:16.593Z,2.20
2023-01-07T12:20:36.904Z,2.30
2023-01-07T12:23:50.050Z,2.20
2023-01-07T12:26:58.937Z,2.30
2023-01-07T12:30:15.163Z,2.60
2023-01-07T12:37:02.367Z,2.58
2023-01-07T12:40:22.832Z,2.20
2023-01-07T12:43:33.715Z,2.10
2023-01-07T12:46:42.483Z,2.03
2023-01-07T12:49:50.591Z,1.80
2023-01-07T12:52:58.665Z,1.65
2023-01-07T12:56:10.484Z,2.13
2023-01-07T12:59:47.198Z,1.73
2023-01-07T13:02:48.826Z,1.80
2023-01-07T13:05:54.063Z,1.80
2023-01-07T13:09:03.236Z,1.77
2023-01-07T13:12:41.996Z,1.70
2023-01-07T13:15:43.971Z,1.85
2023-01-07T13:18:46.777Z,1.70
2023-01-07T13:21:50.405Z,1.80
2023-01-07T13:25:04.853Z,1.90
2023-01-07T13:28:25.721Z,1.52
2023-01-07T13:31:42.571Z,1.80
2023-01-07T13:34:57.048Z,1.90
2023-01-07T13:38:12.307Z,2.03
2023-01-07T13:41:36.964Z,1.80
2023-01-07T13:44:55.441Z,1.38
2023-01-07T13:47:59.788Z,1.50
2023-01-07T13:51:03.668Z,1.60
2023-01-07T13:54:11.798Z,1.57
2023-01-07T13:57:43.352Z,1.58
2023-01-07T14:01:02.693Z,1.30
2023-01-07T14:04:35.173Z,1.50
2023-01-07T14:07:45.491Z,1.80
2023-01-07T14:10:54.177Z,1.77
2023-01-07T14:14:05.471Z,1.40
2023-01-07T14:17:19.393Z,1.17
2023-01-07T14:20:31.534Z,1.33
2023-01-07T14:23:43.013Z,1.63
2023-01-07T14:26:55.169Z,1.73
2023-01-07T14:30:15.310Z,1.73
2023-01-07T14:33:23.236Z,1.50
2023-01-07T14:36:45.495Z,1.40
2023-01-07T14:39:48.207Z,1.77
2023-01-07T14:42:49.522Z,1.90
2023-01-07T14:45:54.389Z,1.52
2023-01-07T14:49:20.740Z,1.60
2023-01-07T14:52:48.709Z,1.80
2023-01-07T14:56:05.635Z,1.60
2023-01-07T14:59:23.137Z,1.87
2023-01-07T15:03:13.479Z,1.40
2023-01-07T15:06:26.732Z,1.80
2023-01-07T15:09:57.014Z,1.30
2023-01-07T15:13:19.420Z,1.50
2023-01-07T15:16:23.455Z,1.70
2023-01-07T15:19:25.036Z,1.50
2023-01-07T15:23:01.034Z,1.80
2023-01-07T15:26:09.472Z,1.57
2023-01-07T15:29:20.671Z,1.80
2023-01-07T15:32:34.875Z,1.92
2023-01-07T15:35:41.388Z,2.00
2023-01-07T15:38:50.676Z,2.05
2023-01-07T15:41:54.336Z,1.88
2023-01-07T15:44:59.400Z,2.00
2023-01-07T15:48:07.062Z,2.38
2023-01-07T15:51:15.169Z,1.80
2023-01-07T15:54:29.279Z,1.67
2023-01-07T15:57:34.919Z,2.00
2023-01-07T16:00:36.347Z,1.58
2023-01-07T16:03:40.253Z,2.00
2023-01-07T16:06:45.359Z,1.60
2023-01-07T16:09:47.576Z,1.80
2023-01-07T16:12:52.016Z,1.90
2023-01-07T16:15:55.236Z,2.13
2023-01-07T16:18:58.412Z,2.20
2023-01-07T16:22:00.683Z,1.93
2023-01-07T16:25:10.836Z,1.80
2023-01-07T16:28:19.136Z,2.45
2023-01-07T16:31:24.087Z,9.18
2023-01-07T16:34:56.706Z,3.60
2023-01-07T16:37:59.980Z,16.20
2023-01-07T16:41:03.197Z,5.95
2023-01-07T16:44:04.783Z,4.00
2023-01-07T16:47:22.414Z,10.32
2023-01-07T16:50:38.278Z,6.82
2023-01-07T16:53:39.719Z,2.83
2023-01-07T16:56:47.731Z,4.43
2023-01-07T16:59:53.477Z,4.78
2023-01-07T17:02:58.943Z,3.17
2023-01-07T17:06:03.899Z,3.08
2023-01-07T17:09:07.090Z,3.50
2023-01-07T17:12:26.236Z,10.05
2023-01-07T17:15:38.524Z,3.30
2023-01-07T17:18:41.140Z,2.60
2023-01-07T17:21:43.490Z,3.28
2023-01-07T17:24:46.777Z,4.10
2023-01-07T17:27:53.109Z,2.53
2023-01-07T17:30:55.853Z,6.63
2023-01-07T17:33:57.121Z,2.30
2023-01-07T17:36:59.882Z,3.95
2023-01-07T17:40:01.172Z,2.53
2023-01-07T17:43:22.808Z,3.45
2023-01-07T17:46:24.264Z,3.25
2023-01-07T17:49:27.384Z,4.93
2023-01-07T17:52:29.371Z,3.58
2023-01-07T17:55:35.066Z,2.80
2023-01-07T17:58:40.294Z,3.97
2023-01-07T18:01:41.858Z,2.78
2023-01-07T18:04:44.491Z,3.25
2023-01-07T18:07:46.471Z,2.50
2023-01-07T18:11:09.009Z,2.33
2023-01-07T18:14:14.205Z,2.95
2023-01-07T18:17:17.363Z,2.55
2023-01-07T18:20:20.755Z,2.33
2023-01-07T18:23:23.760Z,2.20
2023-01-07T18:26:25.434Z,2.60
2023-01-07T18:29:40.090Z,1.98
2023-01-07T18:32:41.921Z,2.50
2023-01-07T18:39:05.644Z,2.40
2023-01-07T18:42:07.248Z,2.13
2023-01-07T18:45:10.246Z,2.10
2023-01-07T18:48:12.834Z,1.90
2023-01-07T18:51:14.183Z,2.70
2023-01-07T18:54:17.798Z,2.60
2023-01-07T18:57:19.334Z,2.45
2023-01-07T19:00:23.749Z,2.20
2023-01-07T19:03:28.075Z,1.90
2023-01-07T19:06:30.206Z,2.10
2023-01-07T19:09:31.786Z,2.30
2023-01-07T19:12:33.164Z,2.33
2023-01-07T19:15:35.954Z,2.83
2023-01-07T19:18:43.539Z,2.43
2023-01-07T19:21:47.209Z,2.15
2023-01-07T19:24:57.011Z,2.75
2023-01-07T19:27:58.894Z,2.92
2023-01-07T19:31:05.434Z,3.27
2023-01-07T19:34:08.996Z,3.00
2023-01-07T19:37:10.367Z,2.97
2023-01-07T19:40:14.259Z,3.90
2023-01-07T19:43:15.845Z,3.63
2023-01-07T19:46:18.718Z,3.80
2023-01-07T19:49:20.584Z,3.43
2023-01-07T19:52:22.230Z,3.50
2023-01-07T19:55:25.153Z,4.07
2023-01-07T19:58:26.670Z,3.60
2023-01-07T20:01:29.128Z,3.80
2023-01-07T20:04:31.928Z,3.80
2023-01-07T20:07:34.215Z,3.35
2023-01-07T20:10:36.133Z,3.45
2023-01-07T20:13:39.160Z,3.10
2023-01-07T20:16:42.951Z,3.17
2023-01-07T20:19:44.350Z,3.30
2023-01-07T20:22:47.417Z,3.30
2023-01-07T20:25:48.813Z,3.00
2023-01-07T20:32:12.781Z,3.00
2023-01-07T20:35:15.699Z,3.40
2023-01-07T20:38:17.000Z,3.28
2023-01-07T20:41:20.970Z,3.22
2023-01-07T20:44:22.651Z,3.15
2023-01-07T20:47:25.041Z,2.97
2023-01-07T20:50:26.635Z,3.20
2023-01-07T20:53:31.241Z,3.50
2023-01-07T20:56:33.946Z,3.50
2023-01-07T20:59:35.564Z,4.13
2023-01-07T21:02:39.418Z,3.40
2023-01-07T21:05:40.885Z,3.63
2023-01-07T21:08:44.267Z,3.95
2023-01-07T21:11:46.790Z,3.75
2023-01-07T21:14:49.303Z,3.90
2023-01-07T21:17:54.794Z,3.60
2023-01-07T21:20:56.228Z,3.80
2023-01-07T21:23:58.992Z,4.40
2023-01-07T21:27:00.368Z,4.30
2023-01-07T21:30:05.734Z,4.20
2023-01-07T21:33:11.840Z,4.13
2023-01-07T21:36:15.324Z,3.95
2023-01-07T21:39:18.392Z,4.13
2023-01-07T21:42:21.712Z,4.00
2023-01-07T21:45:23.015Z,4.20
2023-01-07T21:48:26.204Z,4.37
2023-01-07T21:51:27.908Z,4.10
2023-01-07T21:54:29.252Z,4.30
2023-01-07T21:57:31.913Z,4.20
2023-01-07T22:00:33.284Z,4.43
2023-01-07T22:03:37.927Z,3.70
2023-01-07T22:06:39.511Z,4.18
2023-01-07T22:09:42.465Z,4.07
2023-01-07T22:12:45.029Z,4.18
2023-01-07T22:15:48.122Z,4.15
2023-01-07T22:18:50.122Z,3.80
2023-01-07T22:21:53.512Z,3.60
2023-01-07T22:24:56.056Z,4.15
2023-01-07T22:27:59.961Z,3.95
2023-01-07T22:31:05.774Z,4.13
2023-01-07T22:34:10.352Z,3.83
2023-01-07T22:37:15.257Z,4.10
2023-01-07T22:40:18.213Z,4.28
2023-01-07T22:43:24.546Z,4.20
2023-01-07T22:46:30.114Z,4.50
2023-01-07T22:49:34.010Z,3.97
2023-01-07T22:52:36.645Z,4.30
2023-01-07T22:55:41.332Z,4.13
2023-01-07T22:58:43.862Z,4.15
2023-01-07T23:01:45.227Z,4.40
2023-01-07T23:04:48.513Z,3.77
2023-01-07T23:07:49.815Z,4.28
2023-01-07T23:10:52.378Z,4.07
2023-01-07T23:13:53.675Z,4.43
2023-01-07T23:16:57.454Z,4.30
2023-01-07T23:20:00.983Z,3.97
2023-01-07T23:23:04.117Z,4.30
2023-01-07T23:26:07.521Z,4.10
2023-01-07T23:29:09.950Z,4.50
2023-01-07T23:32:13.791Z,4.47
2023-01-07T23:35:16.246Z,4.50
2023-01-07T23:38:18.878Z,4.45
2023-01-07T23:41:20.201Z,4.50
2023-01-07T23:44:22.926Z,4.07
2023-01-07T23:47:25.576Z,4.40
2023-01-07T23:50:28.178Z,3.83
2023-01-07T23:53:30.743Z,4.20
2023-01-07T23:56:33.656Z,4.40
2023-01-07T23:59:35.158Z,4.05
